Terminal Aerodrome Forecast
Issued by NWS Sioux Falls, SD

Home | Current Version | Previous Version | Graphics & Text | Print | Product List | Glossary On
Versions: 1 2 3 4 5 6 7 8 9 10 11 12 13 14 15 16 17 18
000
FTUS43 KFSD 011549 AAA
TAFHON
TAF AMD
KHON 011549Z 0116/0212 31012KT P6SM SCT020 OVC050
      TEMPO 0116/0118 2SM -SHSN OVC018
     FM011800 32020G27KT P6SM BKN025
     FM012000 31017G25KT P6SM SCT035
     FM012300 32012KT P6SM SCT200
     FM020200 19004KT P6SM BKN110
     FM020900 29006KT P6SM BKN080=

USA.gov is the U.S. government's official web portal to all federal, state and local government web resources and services.